LFOH

Le Havre Octeville Airport

Le Havre/Octeville, France
METAR LFOH 210500Z AUTO 27006KT 9999 BKN004 OVC009 19/18 Q1021
Observed Flight Rules
Aug-21 @ 05:00 UTC (9 hours ago) Instrument Flight Rules
Wind Visibility Clouds
270° at 6 knots 10,000+ meters
  • Broken at 400' AGL
  • Overcast at 900' AGL
Temperatures Readings
Current 19°C / 66°F
Dewpoint 18°C / 64°F
Humidity 94%
Altimeter 30.15" Hg
Pressure 1021 hPa
Elevation 103
METAR LFOH 210500Z AUTO 27006KT 9999 BKN004 OVC009 19/18 Q1021
Observed Flight Rules
Aug-21 @ 05:00 UTC
(9 hours ago)
LIFR
Wind Visibility
270° at 6 knots 10,000+ meters
Clouds
  • Broken at 400' AGL
  • Overcast at 900' AGL
Temperature Dewpoint
19°C / 66°F 18°C / 64°F
Humidity Altimeter Pressure
94% 30.15" Hg 1021 hPa